sensor_id;sensor_type;location;lat;lon;timestamp;temperature;humidity
67364;HTU21D;54250;45.572;38.086;2022-09-28T00:00:50;18.03;72.45
67364;HTU21D;54250;45.572;38.086;2022-09-28T00:03:16;18.08;72.56
67364;HTU21D;54250;45.572;38.086;2022-09-28T00:05:41;18.08;72.58
67364;HTU21D;54250;45.572;38.086;2022-09-28T00:08:07;18.07;72.77
67364;HTU21D;54250;45.572;38.086;2022-09-28T00:10:33;18.05;73.00
67364;HTU21D;54250;45.572;38.086;2022-09-28T00:12:59;18.03;73.21
67364;HTU21D;54250;45.572;38.086;2022-09-28T00:15:25;17.98;73.41
67364;HTU21D;54250;45.572;38.086;2022-09-28T00:17:51;17.97;73.54
67364;HTU21D;54250;45.572;38.086;2022-09-28T00:20:17;17.95;73.54
67364;HTU21D;54250;45.572;38.086;2022-09-28T00:22:44;17.89;73.60
67364;HTU21D;54250;45.572;38.086;2022-09-28T00:25:09;17.80;73.68
67364;HTU21D;54250;45.572;38.086;2022-09-28T00:27:35;17.73;73.77
67364;HTU21D;54250;45.572;38.086;2022-09-28T00:30:01;17.64;73.80
67364;HTU21D;54250;45.572;38.086;2022-09-28T00:32:27;17.56;73.78
67364;HTU21D;54250;45.572;38.086;2022-09-28T00:34:54;17.52;73.80
67364;HTU21D;54250;45.572;38.086;2022-09-28T00:37:20;17.52;73.76
67364;HTU21D;54250;45.572;38.086;2022-09-28T00:39:46;17.55;73.84
67364;HTU21D;54250;45.572;38.086;2022-09-28T00:42:15;17.56;73.90
67364;HTU21D;54250;45.572;38.086;2022-09-28T00:44:50;17.54;73.95
67364;HTU21D;54250;45.572;38.086;2022-09-28T00:49:53;17.56;74.35
67364;HTU21D;54250;45.572;38.086;2022-09-28T00:52:26;17.61;74.44
67364;HTU21D;54250;45.572;38.086;2022-09-28T00:54:52;17.64;74.44
67364;HTU21D;54250;45.572;38.086;2022-09-28T00:57:20;17.64;74.51
67364;HTU21D;54250;45.572;38.086;2022-09-28T00:59:47;17.70;74.67
67364;HTU21D;54250;45.572;38.086;2022-09-28T01:02:14;17.83;74.68
67364;HTU21D;54250;45.572;38.086;2022-09-28T01:04:40;17.96;74.37
67364;HTU21D;54250;45.572;38.086;2022-09-28T01:07:06;18.25;74.15
67364;HTU21D;54250;45.572;38.086;2022-09-28T01:09:34;18.52;73.58
67364;HTU21D;54250;45.572;38.086;2022-09-28T01:12:01;18.74;73.22
67364;HTU21D;54250;45.572;38.086;2022-09-28T01:14:27;18.86;72.99
67364;HTU21D;54250;45.572;38.086;2022-09-28T01:20:03;19.09;72.98
67364;HTU21D;54250;45.572;38.086;2022-09-28T01:37:52;19.20;72.89
67364;HTU21D;54250;45.572;38.086;2022-09-28T01:40:21;19.17;72.96
67364;HTU21D;54250;45.572;38.086;2022-09-28T01:42:50;19.18;72.96
67364;HTU21D;54250;45.572;38.086;2022-09-28T01:45:29;19.20;72.90
67364;HTU21D;54250;45.572;38.086;2022-09-28T01:47:59;19.27;72.77
67364;HTU21D;54250;45.572;38.086;2022-09-28T01:50:27;19.28;72.75
67364;HTU21D;54250;45.572;38.086;2022-09-28T01:52:56;19.30;72.70
67364;HTU21D;54250;45.572;38.086;2022-09-28T01:55:32;19.28;72.69
67364;HTU21D;54250;45.572;38.086;2022-09-28T01:58:01;19.25;72.70
67364;HTU21D;54250;45.572;38.086;2022-09-28T02:00:30;19.21;72.73
67364;HTU21D;54250;45.572;38.086;2022-09-28T02:03:19;19.21;72.73
67364;HTU21D;54250;45.572;38.086;2022-09-28T02:06:04;19.15;72.70
67364;HTU21D;54250;45.572;38.086;2022-09-28T02:08:39;19.13;72.73
67364;HTU21D;54250;45.572;38.086;2022-09-28T02:11:15;19.07;72.75
67364;HTU21D;54250;45.572;38.086;2022-09-28T02:13:42;19.02;72.81
67364;HTU21D;54250;45.572;38.086;2022-09-28T02:18:47;18.82;73.02
67364;HTU21D;54250;45.572;38.086;2022-09-28T02:21:16;18.73;73.07
67364;HTU21D;54250;45.572;38.086;2022-09-28T02:23:47;18.67;73.13
67364;HTU21D;54250;45.572;38.086;2022-09-28T02:26:14;18.58;73.17
67364;HTU21D;54250;45.572;38.086;2022-09-28T02:28:43;18.48;73.24
67364;HTU21D;54250;45.572;38.086;2022-09-28T02:31:08;18.37;73.35
67364;HTU21D;54250;45.572;38.086;2022-09-28T02:33:35;18.26;73.44
67364;HTU21D;54250;45.572;38.086;2022-09-28T02:36:02;18.17;73.49
67364;HTU21D;54250;45.572;38.086;2022-09-28T02:38:32;18.08;73.56
67364;HTU21D;54250;45.572;38.086;2022-09-28T02:41:07;18.02;73.57
67364;HTU21D;54250;45.572;38.086;2022-09-28T02:43:49;17.93;73.61
67364;HTU21D;54250;45.572;38.086;2022-09-28T02:57:23;17.61;73.92
67364;HTU21D;54250;45.572;38.086;2022-09-28T03:07:24;17.49;74.15
67364;HTU21D;54250;45.572;38.086;2022-09-28T03:10:29;17.45;74.19
67364;HTU21D;54250;45.572;38.086;2022-09-28T03:12:46;17.39;74.27
67364;HTU21D;54250;45.572;38.086;2022-09-28T03:15:21;17.37;74.35
67364;HTU21D;54250;45.572;38.086;2022-09-28T03:17:48;17.37;74.29
67364;HTU21D;54250;45.572;38.086;2022-09-28T03:20:14;17.36;74.31
67364;HTU21D;54250;45.572;38.086;2022-09-28T03:22:40;17.37;74.31
67364;HTU21D;54250;45.572;38.086;2022-09-28T03:25:07;17.36;74.31
67364;HTU21D;54250;45.572;38.086;2022-09-28T03:27:36;17.34;74.33
67364;HTU21D;54250;45.572;38.086;2022-09-28T03:30:03;17.31;74.40
67364;HTU21D;54250;45.572;38.086;2022-09-28T03:32:29;17.28;74.41
67364;HTU21D;54250;45.572;38.086;2022-09-28T03:34:55;17.25;74.39
67364;HTU21D;54250;45.572;38.086;2022-09-28T03:37:21;17.25;74.42
67364;HTU21D;54250;45.572;38.086;2022-09-28T03:39:47;17.24;74.41
67364;HTU21D;54250;45.572;38.086;2022-09-28T03:42:13;17.22;74.46
67364;HTU21D;54250;45.572;38.086;2022-09-28T03:44:44;17.21;74.44
67364;HTU21D;54250;45.572;38.086;2022-09-28T03:47:10;17.19;74.43
67364;HTU21D;54250;45.572;38.086;2022-09-28T03:49:36;17.20;74.42
67364;HTU21D;54250;45.572;38.086;2022-09-28T03:52:02;17.20;74.38
67364;HTU21D;54250;45.572;38.086;2022-09-28T03:54:28;17.19;74.42
67364;HTU21D;54250;45.572;38.086;2022-09-28T03:56:54;17.21;74.43
67364;HTU21D;54250;45.572;38.086;2022-09-28T03:59:20;17.21;74.43
67364;HTU21D;54250;45.572;38.086;2022-09-28T04:01:50;17.20;74.44
67364;HTU21D;54250;45.572;38.086;2022-09-28T04:04:16;17.21;74.45
67364;HTU21D;54250;45.572;38.086;2022-09-28T04:06:43;17.21;74.41
67364;HTU21D;54250;45.572;38.086;2022-09-28T04:09:09;17.18;74.45
67364;HTU21D;54250;45.572;38.086;2022-09-28T04:11:35;17.13;74.50
67364;HTU21D;54250;45.572;38.086;2022-09-28T04:14:01;17.07;74.56
67364;HTU21D;54250;45.572;38.086;2022-09-28T04:16:28;17.10;74.52
67364;HTU21D;54250;45.572;38.086;2022-09-28T04:19:03;17.11;74.40
67364;HTU21D;54250;45.572;38.086;2022-09-28T04:21:52;17.17;74.35
67364;HTU21D;54250;45.572;38.086;2022-09-28T04:24:18;17.17;74.33
67364;HTU21D;54250;45.572;38.086;2022-09-28T04:26:45;17.15;74.36
67364;HTU21D;54250;45.572;38.086;2022-09-28T04:29:12;17.13;74.44
67364;HTU21D;54250;45.572;38.086;2022-09-28T04:31:51;17.11;74.46
67364;HTU21D;54250;45.572;38.086;2022-09-28T04:34:21;17.13;74.47
67364;HTU21D;54250;45.572;38.086;2022-09-28T04:36:48;17.15;74.45
67364;HTU21D;54250;45.572;38.086;2022-09-28T04:39:15;17.22;74.37
67364;HTU21D;54250;45.572;38.086;2022-09-28T04:41:46;17.32;74.18
67364;HTU21D;54250;45.572;38.086;2022-09-28T04:44:12;17.41;74.01
67364;HTU21D;54250;45.572;38.086;2022-09-28T04:46:37;17.55;73.78
67364;HTU21D;54250;45.572;38.086;2022-09-28T04:49:41;17.79;73.41
67364;HTU21D;54250;45.572;38.086;2022-09-28T04:52:10;17.97;73.09
67364;HTU21D;54250;45.572;38.086;2022-09-28T04:54:36;18.10;72.87
67364;HTU21D;54250;45.572;38.086;2022-09-28T04:57:02;18.22;72.77
67364;HTU21D;54250;45.572;38.086;2022-09-28T04:59:30;18.32;72.71
67364;HTU21D;54250;45.572;38.086;2022-09-28T05:01:56;18.35;72.69
67364;HTU21D;54250;45.572;38.086;2022-09-28T05:04:40;18.33;72.89
67364;HTU21D;54250;45.572;38.086;2022-09-28T05:07:09;18.23;73.17
67364;HTU21D;54250;45.572;38.086;2022-09-28T05:09:36;18.14;73.43
67364;HTU21D;54250;45.572;38.086;2022-09-28T05:12:02;18.09;73.57
67364;HTU21D;54250;45.572;38.086;2022-09-28T05:14:28;18.08;73.62
67364;HTU21D;54250;45.572;38.086;2022-09-28T05:16:54;18.07;73.64
67364;HTU21D;54250;45.572;38.086;2022-09-28T05:19:20;18.03;73.70
67364;HTU21D;54250;45.572;38.086;2022-09-28T05:21:46;17.99;73.78
67364;HTU21D;54250;45.572;38.086;2022-09-28T05:24:13;17.96;73.86
67364;HTU21D;54250;45.572;38.086;2022-09-28T05:26:42;17.94;73.86
67364;HTU21D;54250;45.572;38.086;2022-09-28T05:29:09;17.94;73.83
67364;HTU21D;54250;45.572;38.086;2022-09-28T05:31:38;17.97;73.80
67364;HTU21D;54250;45.572;38.086;2022-09-28T05:34:09;18.02;73.71
67364;HTU21D;54250;45.572;38.086;2022-09-28T05:36:35;18.08;73.58
67364;HTU21D;54250;45.572;38.086;2022-09-28T05:39:01;18.18;73.42
67364;HTU21D;54250;45.572;38.086;2022-09-28T05:41:29;18.26;73.25
67364;HTU21D;54250;45.572;38.086;2022-09-28T05:43:55;18.33;73.18
67364;HTU21D;54250;45.572;38.086;2022-09-28T05:46:21;18.39;73.14
67364;HTU21D;54250;45.572;38.086;2022-09-28T05:48:49;18.42;73.12
67364;HTU21D;54250;45.572;38.086;2022-09-28T05:51:17;18.46;73.11
67364;HTU21D;54250;45.572;38.086;2022-09-28T05:53:43;18.47;73.13
67364;HTU21D;54250;45.572;38.086;2022-09-28T05:56:09;18.43;73.26
67364;HTU21D;54250;45.572;38.086;2022-09-28T05:58:39;18.36;73.45
67364;HTU21D;54250;45.572;38.086;2022-09-28T06:01:04;18.28;73.62
67364;HTU21D;54250;45.572;38.086;2022-09-28T06:03:30;18.23;73.77
67364;HTU21D;54250;45.572;38.086;2022-09-28T06:05:58;18.18;73.86
67364;HTU21D;54250;45.572;38.086;2022-09-28T06:08:24;18.12;73.93
67364;HTU21D;54250;45.572;38.086;2022-09-28T06:11:09;18.09;73.96
67364;HTU21D;54250;45.572;38.086;2022-09-28T06:13:37;18.05;74.01
67364;HTU21D;54250;45.572;38.086;2022-09-28T06:16:07;18.04;74.02
67364;HTU21D;54250;45.572;38.086;2022-09-28T06:18:34;18.00;74.06
67364;HTU21D;54250;45.572;38.086;2022-09-28T06:21:24;17.98;74.06
67364;HTU21D;54250;45.572;38.086;2022-09-28T06:23:49;18.00;74.02
67364;HTU21D;54250;45.572;38.086;2022-09-28T06:26:18;18.12;73.81
67364;HTU21D;54250;45.572;38.086;2022-09-28T06:28:45;18.27;73.48
67364;HTU21D;54250;45.572;38.086;2022-09-28T06:31:10;18.37;73.28
67364;HTU21D;54250;45.572;38.086;2022-09-28T06:33:44;18.42;73.22
67364;HTU21D;54250;45.572;38.086;2022-09-28T06:36:10;18.46;73.16
67364;HTU21D;54250;45.572;38.086;2022-09-28T06:38:36;18.55;73.12
67364;HTU21D;54250;45.572;38.086;2022-09-28T06:41:02;18.70;72.94
67364;HTU21D;54250;45.572;38.086;2022-09-28T06:43:28;18.85;72.71
67364;HTU21D;54250;45.572;38.086;2022-09-28T06:46:09;19.05;72.41
67364;HTU21D;54250;45.572;38.086;2022-09-28T06:49:04;19.15;72.26
67364;HTU21D;54250;45.572;38.086;2022-09-28T06:52:02;19.14;72.39
67364;HTU21D;54250;45.572;38.086;2022-09-28T06:54:54;19.08;72.63
67364;HTU21D;54250;45.572;38.086;2022-09-28T06:57:26;19.05;72.83
67364;HTU21D;54250;45.572;38.086;2022-09-28T06:59:52;19.01;72.93
67364;HTU21D;54250;45.572;38.086;2022-09-28T07:02:18;19.03;73.00
67364;HTU21D;54250;45.572;38.086;2022-09-28T07:05:04;19.10;72.97
67364;HTU21D;54250;45.572;38.086;2022-09-28T07:07:44;19.10;72.98
67364;HTU21D;54250;45.572;38.086;2022-09-28T07:10:26;19.07;73.13
67364;HTU21D;54250;45.572;38.086;2022-09-28T07:13:03;19.03;73.27
67364;HTU21D;54250;45.572;38.086;2022-09-28T07:15:38;19.02;73.41
67364;HTU21D;54250;45.572;38.086;2022-09-28T07:18:09;19.07;73.41
67364;HTU21D;54250;45.572;38.086;2022-09-28T07:20:38;19.14;73.30
67364;HTU21D;54250;45.572;38.086;2022-09-28T07:23:05;19.25;73.22
67364;HTU21D;54250;45.572;38.086;2022-09-28T07:25:52;19.50;73.01
67364;HTU21D;54250;45.572;38.086;2022-09-28T07:28:29;19.76;72.58
67364;HTU21D;54250;45.572;38.086;2022-09-28T07:31:19;20.10;72.20
67364;HTU21D;54250;45.572;38.086;2022-09-28T07:33:59;20.51;71.31
67364;HTU21D;54250;45.572;38.086;2022-09-28T07:36:33;20.73;70.99
67364;HTU21D;54250;45.572;38.086;2022-09-28T07:39:00;20.79;71.01
67364;HTU21D;54250;45.572;38.086;2022-09-28T07:41:27;20.78;71.35
67364;HTU21D;54250;45.572;38.086;2022-09-28T07:44:02;20.80;71.51
67364;HTU21D;54250;45.572;38.086;2022-09-28T07:46:32;20.81;71.54
67364;HTU21D;54250;45.572;38.086;2022-09-28T07:49:03;20.84;71.65
67364;HTU21D;54250;45.572;38.086;2022-09-28T07:51:49;21.02;71.46
67364;HTU21D;54250;45.572;38.086;2022-09-28T07:54:21;21.15;71.19
67364;HTU21D;54250;45.572;38.086;2022-09-28T07:56:53;21.10;71.32
67364;HTU21D;54250;45.572;38.086;2022-09-28T07:59:48;20.85;71.94
67364;HTU21D;54250;45.572;38.086;2022-09-28T08:02:39;20.61;72.48
67364;HTU21D;54250;45.572;38.086;2022-09-28T08:05:05;20.45;72.86
67364;HTU21D;54250;45.572;38.086;2022-09-28T08:07:33;20.33;73.19
67364;HTU21D;54250;45.572;38.086;2022-09-28T08:10:05;20.31;73.21
67364;HTU21D;54250;45.572;38.086;2022-09-28T08:12:55;20.33;73.05
67364;HTU21D;54250;45.572;38.086;2022-09-28T08:15:24;20.27;73.14
67364;HTU21D;54250;45.572;38.086;2022-09-28T08:17:54;20.22;73.26
67364;HTU21D;54250;45.572;38.086;2022-09-28T08:20:21;20.19;73.26
67364;HTU21D;54250;45.572;38.086;2022-09-28T08:23:06;20.13;73.36
67364;HTU21D;54250;45.572;38.086;2022-09-28T08:25:33;20.03;73.59
67364;HTU21D;54250;45.572;38.086;2022-09-28T08:28:04;19.94;73.79
67364;HTU21D;54250;45.572;38.086;2022-09-28T08:30:40;19.86;73.93
67364;HTU21D;54250;45.572;38.086;2022-09-28T08:33:24;19.80;74.14
67364;HTU21D;54250;45.572;38.086;2022-09-28T08:36:09;19.86;74.13
67364;HTU21D;54250;45.572;38.086;2022-09-28T08:39:00;20.14;73.57
67364;HTU21D;54250;45.572;38.086;2022-09-28T08:41:47;20.55;72.99
67364;HTU21D;54250;45.572;38.086;2022-09-28T08:44:48;21.21;71.95
67364;HTU21D;54250;45.572;38.086;2022-09-28T08:51:01;22.13;70.21
67364;HTU21D;54250;45.572;38.086;2022-09-28T08:56:25;21.66;71.99
67364;HTU21D;54250;45.572;38.086;2022-09-28T08:58:53;21.46;72.85
67364;HTU21D;54250;45.572;38.086;2022-09-28T09:01:20;21.31;73.52
67364;HTU21D;54250;45.572;38.086;2022-09-28T09:03:48;21.20;74.09
67364;HTU21D;54250;45.572;38.086;2022-09-28T09:20:24;23.18;70.78
67364;HTU21D;54250;45.572;38.086;2022-09-28T09:26:02;23.22;70.97
67364;HTU21D;54250;45.572;38.086;2022-09-28T09:28:47;22.90;71.95
67364;HTU21D;54250;45.572;38.086;2022-09-28T09:36:57;23.35;71.45
67364;HTU21D;54250;45.572;38.086;2022-09-28T09:39:50;23.81;71.03
67364;HTU21D;54250;45.572;38.086;2022-09-28T09:45:45;28.50;62.60
67364;HTU21D;54250;45.572;38.086;2022-09-28T09:51:02;30.08;60.84
67364;HTU21D;54250;45.572;38.086;2022-09-28T09:53:36;30.57;60.21
67364;HTU21D;54250;45.572;38.086;2022-09-28T09:56:07;30.40;60.08
67364;HTU21D;54250;45.572;38.086;2022-09-28T09:59:19;30.49;60.64
67364;HTU21D;54250;45.572;38.086;2022-09-28T10:02:01;30.78;59.98
67364;HTU21D;54250;45.572;38.086;2022-09-28T10:04:45;30.95;59.71
67364;HTU21D;54250;45.572;38.086;2022-09-28T10:10:10;30.38;61.80
67364;HTU21D;54250;45.572;38.086;2022-09-28T10:12:47;30.62;60.12
67364;HTU21D;54250;45.572;38.086;2022-09-28T10:15:15;29.74;62.15
67364;HTU21D;54250;45.572;38.086;2022-09-28T10:18:02;29.08;62.66
67364;HTU21D;54250;45.572;38.086;2022-09-28T10:20:49;27.87;64.49
67364;HTU21D;54250;45.572;38.086;2022-09-28T10:23:41;27.09;66.25
67364;HTU21D;54250;45.572;38.086;2022-09-28T10:26:21;26.60;66.88
67364;HTU21D;54250;45.572;38.086;2022-09-28T10:29:22;26.16;67.15
67364;HTU21D;54250;45.572;38.086;2022-09-28T10:31:42;25.80;67.58
67364;HTU21D;54250;45.572;38.086;2022-09-28T10:34:27;25.94;67.03
67364;HTU21D;54250;45.572;38.086;2022-09-28T10:37:05;26.11;66.62
67364;HTU21D;54250;45.572;38.086;2022-09-28T10:39:54;26.31;66.29
67364;HTU21D;54250;45.572;38.086;2022-09-28T10:42:22;26.46;66.22
67364;HTU21D;54250;45.572;38.086;2022-09-28T10:47:33;26.61;66.09
67364;HTU21D;54250;45.572;38.086;2022-09-28T10:50:01;26.66;66.14
67364;HTU21D;54250;45.572;38.086;2022-09-28T10:54:58;26.64;65.85
67364;HTU21D;54250;45.572;38.086;2022-09-28T10:57:42;26.51;65.95
67364;HTU21D;54250;45.572;38.086;2022-09-28T11:00:26;26.49;65.78
67364;HTU21D;54250;45.572;38.086;2022-09-28T11:03:16;26.51;65.62
67364;HTU21D;54250;45.572;38.086;2022-09-28T11:05:51;26.52;65.39
67364;HTU21D;54250;45.572;38.086;2022-09-28T11:08:17;26.40;65.43
67364;HTU21D;54250;45.572;38.086;2022-09-28T11:10:47;26.27;65.55
67364;HTU21D;54250;45.572;38.086;2022-09-28T11:13:26;26.18;65.64
67364;HTU21D;54250;45.572;38.086;2022-09-28T11:16:00;26.15;65.68
67364;HTU21D;54250;45.572;38.086;2022-09-28T11:18:31;26.24;65.37
67364;HTU21D;54250;45.572;38.086;2022-09-28T11:21:08;26.27;65.19
67364;HTU21D;54250;45.572;38.086;2022-09-28T11:23:34;26.23;65.34
67364;HTU21D;54250;45.572;38.086;2022-09-28T11:26:14;26.20;65.30
67364;HTU21D;54250;45.572;38.086;2022-09-28T11:28:40;26.03;65.53
67364;HTU21D;54250;45.572;38.086;2022-09-28T11:31:15;25.83;65.82
67364;HTU21D;54250;45.572;38.086;2022-09-28T11:34:10;25.65;65.93
67364;HTU21D;54250;45.572;38.086;2022-09-28T11:45:16;25.07;66.17
67364;HTU21D;54250;45.572;38.086;2022-09-28T11:47:46;25.21;65.75
67364;HTU21D;54250;45.572;38.086;2022-09-28T11:57:47;25.23;65.40
67364;HTU21D;54250;45.572;38.086;2022-09-28T12:00:17;25.14;65.46
67364;HTU21D;54250;45.572;38.086;2022-09-28T12:02:52;25.23;65.33
67364;HTU21D;54250;45.572;38.086;2022-09-28T12:05:32;25.28;65.08
67364;HTU21D;54250;45.572;38.086;2022-09-28T12:08:14;25.31;65.04
67364;HTU21D;54250;45.572;38.086;2022-09-28T12:13:56;25.17;65.04
67364;HTU21D;54250;45.572;38.086;2022-09-28T12:16:30;25.03;65.21
67364;HTU21D;54250;45.572;38.086;2022-09-28T12:19:04;24.89;65.45
67364;HTU21D;54250;45.572;38.086;2022-09-28T12:21:35;24.79;65.58
67364;HTU21D;54250;45.572;38.086;2022-09-28T12:24:04;24.77;65.54
67364;HTU21D;54250;45.572;38.086;2022-09-28T12:26:46;24.82;65.37
67364;HTU21D;54250;45.572;38.086;2022-09-28T12:29:14;24.87;65.14
67364;HTU21D;54250;45.572;38.086;2022-09-28T12:34:16;24.97;65.00
67364;HTU21D;54250;45.572;38.086;2022-09-28T12:49:54;24.32;65.93
67364;HTU21D;54250;45.572;38.086;2022-09-28T13:18:12;24.04;66.26
67364;HTU21D;54250;45.572;38.086;2022-09-28T13:25:33;23.81;66.73
67364;HTU21D;54250;45.572;38.086;2022-09-28T13:28:02;23.85;66.58
67364;HTU21D;54250;45.572;38.086;2022-09-28T13:30:28;23.84;66.51
67364;HTU21D;54250;45.572;38.086;2022-09-28T13:32:55;23.76;66.60
67364;HTU21D;54250;45.572;38.086;2022-09-28T13:35:22;23.68;66.72
67364;HTU21D;54250;45.572;38.086;2022-09-28T13:38:28;23.55;66.92
67364;HTU21D;54250;45.572;38.086;2022-09-28T13:43:40;23.24;67.38
67364;HTU21D;54250;45.572;38.086;2022-09-28T13:46:26;23.10;67.57
67364;HTU21D;54250;45.572;38.086;2022-09-28T13:56:34;22.75;67.91
67364;HTU21D;54250;45.572;38.086;2022-09-28T13:59:14;22.67;67.98
67364;HTU21D;54250;45.572;38.086;2022-09-28T14:01:43;22.60;68.04
67364;HTU21D;54250;45.572;38.086;2022-09-28T14:04:12;22.50;68.16
67364;HTU21D;54250;45.572;38.086;2022-09-28T14:06:41;22.40;68.28
67364;HTU21D;54250;45.572;38.086;2022-09-28T14:09:22;22.32;68.39
67364;HTU21D;54250;45.572;38.086;2022-09-28T14:11:55;22.23;68.52
67364;HTU21D;54250;45.572;38.086;2022-09-28T14:17:33;22.13;68.60
67364;HTU21D;54250;45.572;38.086;2022-09-28T14:19:48;22.11;68.60
67364;HTU21D;54250;45.572;38.086;2022-09-28T14:32:34;21.98;68.71
67364;HTU21D;54250;45.572;38.086;2022-09-28T14:35:02;21.87;68.91
67364;HTU21D;54250;45.572;38.086;2022-09-28T14:37:30;21.79;69.03
67364;HTU21D;54250;45.572;38.086;2022-09-28T14:40:19;21.73;69.12
67364;HTU21D;54250;45.572;38.086;2022-09-28T14:45:49;21.57;69.32
67364;HTU21D;54250;45.572;38.086;2022-09-28T14:48:20;21.45;69.43
67364;HTU21D;54250;45.572;38.086;2022-09-28T14:50:46;21.31;69.63
67364;HTU21D;54250;45.572;38.086;2022-09-28T14:53:16;21.17;69.87
67364;HTU21D;54250;45.572;38.086;2022-09-28T14:55:46;21.05;69.99
67364;HTU21D;54250;45.572;38.086;2022-09-28T14:58:17;20.98;70.04
67364;HTU21D;54250;45.572;38.086;2022-09-28T15:00:44;20.88;70.15
67364;HTU21D;54250;45.572;38.086;2022-09-28T15:03:10;20.87;70.13
67364;HTU21D;54250;45.572;38.086;2022-09-28T15:05:40;20.86;70.14
67364;HTU21D;54250;45.572;38.086;2022-09-28T15:08:07;20.77;70.20
67364;HTU21D;54250;45.572;38.086;2022-09-28T15:10:37;20.65;70.34
67364;HTU21D;54250;45.572;38.086;2022-09-28T15:13:05;20.57;70.50
67364;HTU21D;54250;45.572;38.086;2022-09-28T15:15:40;20.49;70.61
67364;HTU21D;54250;45.572;38.086;2022-09-28T15:20:52;20.35;70.77
67364;HTU21D;54250;45.572;38.086;2022-09-28T15:25:52;20.25;70.91
67364;HTU21D;54250;45.572;38.086;2022-09-28T15:28:19;20.19;71.00
67364;HTU21D;54250;45.572;38.086;2022-09-28T15:30:48;20.12;71.06
67364;HTU21D;54250;45.572;38.086;2022-09-28T15:33:32;19.99;71.26
67364;HTU21D;54250;45.572;38.086;2022-09-28T15:36:18;19.77;71.51
67364;HTU21D;54250;45.572;38.086;2022-09-28T15:38:48;19.63;71.71
67364;HTU21D;54250;45.572;38.086;2022-09-28T15:41:16;19.57;71.74
67364;HTU21D;54250;45.572;38.086;2022-09-28T15:43:42;19.50;71.78
67364;HTU21D;54250;45.572;38.086;2022-09-28T15:46:13;19.41;71.85
67364;HTU21D;54250;45.572;38.086;2022-09-28T15:48:46;19.31;71.90
67364;HTU21D;54250;45.572;38.086;2022-09-28T15:51:16;19.17;72.04
67364;HTU21D;54250;45.572;38.086;2022-09-28T15:56:15;18.87;72.39
67364;HTU21D;54250;45.572;38.086;2022-09-28T15:58:41;18.76;72.46
67364;HTU21D;54250;45.572;38.086;2022-09-28T16:01:27;18.68;72.48
67364;HTU21D;54250;45.572;38.086;2022-09-28T16:04:29;18.57;72.58
67364;HTU21D;54250;45.572;38.086;2022-09-28T16:12:20;18.62;72.31
67364;HTU21D;54250;45.572;38.086;2022-09-28T16:14:47;18.54;72.39
67364;HTU21D;54250;45.572;38.086;2022-09-28T16:17:17;18.50;72.50
67364;HTU21D;54250;45.572;38.086;2022-09-28T16:19:44;18.46;72.58
67364;HTU21D;54250;45.572;38.086;2022-09-28T16:22:15;18.43;72.58
67364;HTU21D;54250;45.572;38.086;2022-09-28T16:24:43;18.41;72.58
67364;HTU21D;54250;45.572;38.086;2022-09-28T16:30:23;18.46;72.64
67364;HTU21D;54250;45.572;38.086;2022-09-28T16:32:47;18.42;72.68
67364;HTU21D;54250;45.572;38.086;2022-09-28T16:35:18;18.40;72.84
67364;HTU21D;54250;45.572;38.086;2022-09-28T16:37:44;18.42;72.78
67364;HTU21D;54250;45.572;38.086;2022-09-28T16:40:13;18.50;72.80
67364;HTU21D;54250;45.572;38.086;2022-09-28T16:42:39;18.59;72.77
67364;HTU21D;54250;45.572;38.086;2022-09-28T16:45:08;18.62;72.71
67364;HTU21D;54250;45.572;38.086;2022-09-28T16:47:37;18.62;72.87
67364;HTU21D;54250;45.572;38.086;2022-09-28T16:50:04;18.61;72.97
67364;HTU21D;54250;45.572;38.086;2022-09-28T16:52:31;18.59;73.09
67364;HTU21D;54250;45.572;38.086;2022-09-28T16:55:26;18.57;73.26
67364;HTU21D;54250;45.572;38.086;2022-09-28T16:57:52;18.53;73.35
67364;HTU21D;54250;45.572;38.086;2022-09-28T17:00:22;18.46;73.48
67364;HTU21D;54250;45.572;38.086;2022-09-28T17:02:51;18.39;73.67
67364;HTU21D;54250;45.572;38.086;2022-09-28T17:05:20;18.33;73.76
67364;HTU21D;54250;45.572;38.086;2022-09-28T17:07:46;18.32;73.87
67364;HTU21D;54250;45.572;38.086;2022-09-28T17:10:14;18.36;73.75
67364;HTU21D;54250;45.572;38.086;2022-09-28T17:12:41;18.39;73.54
67364;HTU21D;54250;45.572;38.086;2022-09-28T17:15:07;18.34;73.62
67364;HTU21D;54250;45.572;38.086;2022-09-28T17:17:33;18.27;73.75
67364;HTU21D;54250;45.572;38.086;2022-09-28T17:20:00;18.19;73.84
67364;HTU21D;54250;45.572;38.086;2022-09-28T17:22:26;18.09;74.01
67364;HTU21D;54250;45.572;38.086;2022-09-28T17:24:51;17.98;74.34
67364;HTU21D;54250;45.572;38.086;2022-09-28T17:27:17;17.93;74.39
67364;HTU21D;54250;45.572;38.086;2022-09-28T17:29:44;17.89;74.59
67364;HTU21D;54250;45.572;38.086;2022-09-28T17:32:16;17.92;74.52
67364;HTU21D;54250;45.572;38.086;2022-09-28T17:34:42;17.92;74.54
67364;HTU21D;54250;45.572;38.086;2022-09-28T17:37:11;17.92;74.58
67364;HTU21D;54250;45.572;38.086;2022-09-28T17:39:38;17.93;74.58
67364;HTU21D;54250;45.572;38.086;2022-09-28T17:42:03;17.90;74.60
67364;HTU21D;54250;45.572;38.086;2022-09-28T17:44:29;17.84;74.84
67364;HTU21D;54250;45.572;38.086;2022-09-28T17:46:55;17.81;75.03
67364;HTU21D;54250;45.572;38.086;2022-09-28T17:49:21;17.84;75.07
67364;HTU21D;54250;45.572;38.086;2022-09-28T17:51:47;17.93;74.99
67364;HTU21D;54250;45.572;38.086;2022-09-28T17:54:14;18.00;74.93
67364;HTU21D;54250;45.572;38.086;2022-09-28T17:56:44;18.04;74.93
67364;HTU21D;54250;45.572;38.086;2022-09-28T17:59:11;18.05;75.02
67364;HTU21D;54250;45.572;38.086;2022-09-28T18:01:38;18.06;75.13
67364;HTU21D;54250;45.572;38.086;2022-09-28T18:04:05;18.10;75.18
67364;HTU21D;54250;45.572;38.086;2022-09-28T18:06:32;18.12;75.41
67364;HTU21D;54250;45.572;38.086;2022-09-28T18:08:58;18.09;75.52
67364;HTU21D;54250;45.572;38.086;2022-09-28T18:11:30;18.05;75.81
67364;HTU21D;54250;45.572;38.086;2022-09-28T18:13:56;18.02;76.05
67364;HTU21D;54250;45.572;38.086;2022-09-28T18:16:22;17.98;76.05
67364;HTU21D;54250;45.572;38.086;2022-09-28T18:18:49;17.95;76.16
67364;HTU21D;54250;45.572;38.086;2022-09-28T18:21:15;17.94;76.37
67364;HTU21D;54250;45.572;38.086;2022-09-28T18:23:41;17.93;76.53
67364;HTU21D;54250;45.572;38.086;2022-09-28T18:26:10;17.91;76.66
67364;HTU21D;54250;45.572;38.086;2022-09-28T18:28:36;17.94;76.98
67364;HTU21D;54250;45.572;38.086;2022-09-28T18:31:06;17.98;77.02
67364;HTU21D;54250;45.572;38.086;2022-09-28T18:33:32;17.97;77.20
67364;HTU21D;54250;45.572;38.086;2022-09-28T18:35:58;18.00;77.37
67364;HTU21D;54250;45.572;38.086;2022-09-28T18:38:24;18.03;77.32
67364;HTU21D;54250;45.572;38.086;2022-09-28T18:40:49;18.07;77.43
67364;HTU21D;54250;45.572;38.086;2022-09-28T18:43:17;18.05;77.28